Time;durP1;ratioP1;P1;durP2;ratioP2;P2;SDS_P1;SDS_P2;PMS_P1;PMS_P2;Temp;Humidity;BMP_temperature;BMP_pressure;BME280_temperature;BME280_humidity;BME280_pressure;Samples;Min_cycle;Max_cycle;Signal;HPM_P1;HPM_P2
2023/04/27 00:00:59;;;;;;;5.20;2.07;;;13.50;99.90;;;;;;5085688;28;20217;-75
2023/04/27 00:03:25;;;;;;;3.47;1.60;;;13.50;99.90;;;;;;5108034;27;20298;-75
2023/04/27 00:05:51;;;;;;;7.63;1.77;;;13.40;99.90;;;;;;5083943;28;20521;-75
2023/04/27 00:08:17;;;;;;;5.90;1.67;;;13.40;99.90;;;;;;5087607;28;21111;-76
2023/04/27 00:10:43;;;;;;;4.60;1.73;;;13.30;99.90;;;;;;5097721;28;20273;-76
2023/04/27 00:13:10;;;;;;;3.97;1.80;;;13.10;99.90;;;;;;5113917;27;20185;-75
2023/04/27 00:15:36;;;;;;;3.73;1.50;;;12.90;99.90;;;;;;5092745;28;20181;-75
2023/04/27 00:18:03;;;;;;;2.83;1.60;;;12.70;99.90;;;;;;5104421;28;20193;-75
2023/04/27 00:20:29;;;;;;;4.97;1.43;;;12.50;99.90;;;;;;5099782;28;20194;-75
2023/04/27 00:22:55;;;;;;;4.83;1.73;;;12.50;99.90;;;;;;5095768;28;20592;-75
2023/04/27 00:25:21;;;;;;;5.50;1.80;;;12.60;99.90;;;;;;5102389;28;20366;-75
2023/04/27 00:27:47;;;;;;;2.40;1.50;;;12.80;99.90;;;;;;5096925;27;20225;-75
2023/04/27 00:30:14;;;;;;;3.73;1.70;;;12.90;99.90;;;;;;5108710;27;20548;-75
2023/04/27 00:32:41;;;;;;;4.97;1.80;;;13.00;99.90;;;;;;5100756;27;20189;-75
2023/04/27 00:35:08;;;;;;;7.53;1.77;;;13.00;99.90;;;;;;5068207;27;20197;-75
2023/04/27 00:37:34;;;;;;;5.20;1.93;;;13.10;99.90;;;;;;5099961;27;20721;-75
2023/04/27 00:40:03;;;;;;;5.83;1.70;;;13.20;99.90;;;;;;5102490;27;20189;-75
2023/04/27 00:42:29;;;;;;;3.30;1.60;;;13.30;99.90;;;;;;5096626;27;20190;-75
2023/04/27 00:45:00;;;;;;;6.60;1.53;;;13.30;99.90;;;;;;5103433;27;20186;-75
2023/04/27 00:47:29;;;;;;;3.23;1.63;;;13.50;99.90;;;;;;5061835;28;20238;-76
2023/04/27 00:49:55;;;;;;;7.53;1.90;;;13.50;99.90;;;;;;5105784;27;20760;-75
2023/04/27 00:52:22;;;;;;;3.47;1.50;;;13.50;99.90;;;;;;5097527;28;20601;-75
2023/04/27 00:54:51;;;;;;;2.60;1.53;;;13.50;99.90;;;;;;5064121;28;20726;-75
2023/04/27 00:57:17;;;;;;;5.30;1.63;;;13.50;99.90;;;;;;5089236;27;20197;-75
2023/04/27 00:59:44;;;;;;;3.80;2.23;;;13.50;99.90;;;;;;5113623;27;20276;-75
2023/04/27 01:02:11;;;;;;;2.47;1.40;;;13.60;99.90;;;;;;5084495;28;20186;-75
2023/04/27 01:04:37;;;;;;;2.63;1.60;;;13.60;99.90;;;;;;5080469;28;20253;-75
2023/04/27 01:07:03;;;;;;;2.80;1.37;;;13.60;99.90;;;;;;5101378;27;20181;-75
2023/04/27 01:09:31;;;;;;;3.07;1.60;;;13.60;99.90;;;;;;5102963;28;20548;-75
2023/04/27 01:11:57;;;;;;;3.07;1.47;;;13.70;99.90;;;;;;5079331;28;20624;-75
2023/04/27 01:14:23;;;;;;;3.00;1.37;;;13.70;99.90;;;;;;5108157;27;20190;-75
2023/04/27 01:16:51;;;;;;;2.00;1.40;;;13.70;99.90;;;;;;5095750;28;21985;-75
2023/04/27 01:19:17;;;;;;;2.77;1.50;;;13.80;99.90;;;;;;5112095;27;20280;-75
2023/04/27 01:21:44;;;;;;;6.50;1.47;;;13.80;99.90;;;;;;5084445;28;20186;-76
2023/04/27 01:24:10;;;;;;;2.83;1.20;;;13.80;99.90;;;;;;5097042;28;20208;-75
2023/04/27 01:26:36;;;;;;;3.47;1.30;;;13.70;99.90;;;;;;5094225;28;20193;-75
2023/04/27 01:29:02;;;;;;;2.83;1.47;;;13.80;99.90;;;;;;5086497;28;20297;-75
2023/04/27 01:31:30;;;;;;;5.23;1.40;;;13.80;99.90;;;;;;5074391;28;20238;-75
2023/04/27 01:33:56;;;;;;;2.60;1.37;;;13.80;99.90;;;;;;5095826;28;20185;-75
2023/04/27 01:36:22;;;;;;;2.37;1.43;;;13.80;99.90;;;;;;5076030;28;20662;-75
2023/04/27 01:38:48;;;;;;;4.17;1.40;;;13.90;99.90;;;;;;5114085;28;20208;-75
2023/04/27 01:41:14;;;;;;;2.97;1.63;;;13.90;99.90;;;;;;5100234;28;20658;-75
2023/04/27 01:43:42;;;;;;;2.43;1.50;;;14.00;99.90;;;;;;5110786;28;20590;-75
2023/04/27 01:46:11;;;;;;;5.37;1.47;;;14.00;99.90;;;;;;5090501;28;20279;-75
2023/04/27 01:48:39;;;;;;;2.93;1.40;;;14.00;99.90;;;;;;5099355;28;20202;-75
2023/04/27 01:51:05;;;;;;;4.57;1.53;;;14.00;99.90;;;;;;5104661;27;20174;-75
2023/04/27 01:53:32;;;;;;;4.37;1.50;;;14.10;99.90;;;;;;5097501;28;20183;-76
2023/04/27 01:55:59;;;;;;;10.30;1.70;;;14.10;99.90;;;;;;5098062;28;20192;-75
2023/04/27 01:58:26;;;;;;;8.90;1.90;;;14.10;99.90;;;;;;5068604;28;20206;-75
2023/04/27 02:00:52;;;;;;;5.87;1.80;;;14.10;99.90;;;;;;5097980;28;20197;-75
2023/04/27 02:03:19;;;;;;;4.00;1.87;;;14.10;99.90;;;;;;5079605;28;20382;-75
2023/04/27 02:05:46;;;;;;;3.97;1.87;;;14.20;99.90;;;;;;5077003;28;20181;-75
2023/04/27 02:08:13;;;;;;;3.87;1.87;;;14.20;99.90;;;;;;5093591;28;20819;-75
2023/04/27 02:10:39;;;;;;;3.87;1.80;;;14.20;99.90;;;;;;5084365;28;20186;-75
2023/04/27 02:13:05;;;;;;;6.45;2.05;;;14.20;99.90;;;;;;5083379;28;20880;-75
2023/04/27 02:15:32;;;;;;;4.30;1.70;;;14.20;99.90;;;;;;5096762;28;20403;-75
2023/04/27 02:17:58;;;;;;;3.70;2.00;;;14.20;99.90;;;;;;5075963;28;20913;-75
2023/04/27 02:20:24;;;;;;;4.45;1.98;;;14.30;99.90;;;;;;5101904;28;20862;-75
2023/04/27 02:22:52;;;;;;;4.70;2.08;;;14.30;99.90;;;;;;5099329;28;20412;-75
2023/04/27 02:25:18;;;;;;;3.72;2.05;;;14.30;99.90;;;;;;5066396;28;20830;-75
2023/04/27 02:27:45;;;;;;;3.75;1.98;;;14.30;99.90;;;;;;5096750;28;21171;-75
2023/04/27 02:30:12;;;;;;;5.10;1.90;;;14.30;99.90;;;;;;5092753;28;20420;-75
2023/04/27 02:32:38;;;;;;;3.72;1.80;;;14.30;99.90;;;;;;5083736;28;20892;-75
2023/04/27 02:35:05;;;;;;;3.67;1.57;;;14.30;99.90;;;;;;5099435;28;20396;-75
2023/04/27 02:37:32;;;;;;;6.97;2.15;;;14.20;99.90;;;;;;5092634;28;20914;-75
2023/04/27 02:39:59;;;;;;;5.95;1.98;;;14.20;99.90;;;;;;5094524;28;20460;-76
2023/04/27 02:42:25;;;;;;;4.15;1.70;;;14.30;99.90;;;;;;5074464;28;20411;-75
2023/04/27 02:44:52;;;;;;;4.43;1.85;;;14.30;99.90;;;;;;5105717;27;20421;-75
2023/04/27 02:47:18;;;;;;;3.33;1.80;;;14.30;99.90;;;;;;5088854;27;20779;-75
2023/04/27 02:49:44;;;;;;;4.18;1.90;;;14.20;99.90;;;;;;5083325;28;20401;-75
2023/04/27 02:52:10;;;;;;;4.40;1.80;;;14.20;99.90;;;;;;5105034;27;20531;-75
2023/04/27 02:54:37;;;;;;;5.85;2.00;;;14.30;99.90;;;;;;5104864;27;20406;-75
2023/04/27 02:57:03;;;;;;;6.38;2.10;;;14.30;99.90;;;;;;5074114;28;20392;-75
2023/04/27 02:59:29;;;;;;;5.47;1.90;;;14.30;99.90;;;;;;5101183;27;20967;-76
2023/04/27 03:01:55;;;;;;;5.60;1.98;;;14.30;99.90;;;;;;5088700;27;20505;-75
2023/04/27 03:04:22;;;;;;;6.78;2.15;;;14.30;99.90;;;;;;5105193;27;21034;-75
2023/04/27 03:06:48;;;;;;;4.93;2.10;;;14.30;99.90;;;;;;5098347;28;20394;-75
2023/04/27 03:09:14;;;;;;;4.18;1.70;;;14.30;99.90;;;;;;5094187;28;20401;-75
2023/04/27 03:11:40;;;;;;;5.68;2.22;;;14.30;99.90;;;;;;5102990;27;20408;-76
2023/04/27 03:14:07;;;;;;;4.93;2.13;;;14.40;99.90;;;;;;5111815;27;20403;-75
2023/04/27 03:16:34;;;;;;;3.10;2.10;;;14.40;99.90;;;;;;5102995;28;20870;-76
2023/04/27 03:19:00;;;;;;;4.05;2.10;;;14.40;99.90;;;;;;5084345;27;21200;-75
2023/04/27 03:21:27;;;;;;;5.93;2.10;;;14.40;99.90;;;;;;5109486;27;20500;-75
2023/04/27 03:23:53;;;;;;;4.82;1.98;;;14.40;99.90;;;;;;5083609;28;20419;-75
2023/04/27 03:26:20;;;;;;;5.97;1.92;;;14.40;99.90;;;;;;5096741;28;20469;-75
2023/04/27 03:28:46;;;;;;;3.05;1.83;;;14.50;99.90;;;;;;5096149;28;20471;-75
2023/04/27 03:31:14;;;;;;;6.38;1.90;;;14.50;99.90;;;;;;5098590;27;20582;-75
2023/04/27 03:33:41;;;;;;;4.82;2.25;;;14.50;99.90;;;;;;5099025;27;20977;-75
2023/04/27 03:36:10;;;;;;;4.72;2.00;;;14.50;99.90;;;;;;5100765;27;20407;-76
2023/04/27 03:38:36;;;;;;;6.15;2.20;;;14.50;99.90;;;;;;5096081;27;20967;-75
2023/04/27 03:41:02;;;;;;;5.00;2.00;;;14.60;99.90;;;;;;5077686;27;20417;-76
2023/04/27 03:43:29;;;;;;;5.47;2.00;;;14.60;99.90;;;;;;5103342;27;20471;-76
2023/04/27 03:45:56;;;;;;;5.57;2.17;;;14.60;99.90;;;;;;5082380;28;20425;-76
2023/04/27 03:48:23;;;;;;;5.95;2.00;;;14.70;99.90;;;;;;5108071;27;20415;-75
2023/04/27 03:50:50;;;;;;;5.27;1.93;;;14.70;99.90;;;;;;5087766;27;20421;-75
2023/04/27 03:53:16;;;;;;;5.78;2.10;;;14.70;99.90;;;;;;5110881;27;20958;-75
2023/04/27 03:55:44;;;;;;;3.67;1.58;;;14.80;99.90;;;;;;5096553;28;20402;-75
2023/04/27 03:58:10;;;;;;;4.97;2.00;;;14.80;99.90;;;;;;5106794;27;20870;-76
2023/04/27 04:00:37;;;;;;;4.63;2.00;;;14.90;99.90;;;;;;5068783;28;20402;-76
2023/04/27 04:03:05;;;;;;;4.57;1.80;;;14.90;99.90;;;;;;5107953;27;20927;-75
2023/04/27 04:05:32;;;;;;;5.47;1.88;;;14.90;99.90;;;;;;5067174;28;20406;-75
2023/04/27 04:07:58;;;;;;;5.90;1.90;;;14.90;99.90;;;;;;5096140;28;20453;-76
2023/04/27 04:10:25;;;;;;;4.78;1.60;;;14.90;99.90;;;;;;5083666;28;20480;-76
2023/04/27 04:12:52;;;;;;;4.20;2.00;;;15.00;99.90;;;;;;5114785;27;20418;-75
2023/04/27 04:15:19;;;;;;;4.60;2.00;;;15.00;99.90;;;;;;5104439;27;20412;-76
2023/04/27 04:17:46;;;;;;;5.38;1.88;;;15.00;99.90;;;;;;5099208;28;20963;-75
2023/04/27 04:20:12;;;;;;;4.78;1.88;;;15.00;99.90;;;;;;5073204;28;20418;-76
2023/04/27 04:22:39;;;;;;;5.32;2.08;;;15.00;99.90;;;;;;5110499;27;20422;-76
2023/04/27 04:25:06;;;;;;;5.53;1.90;;;15.10;99.90;;;;;;5075475;28;20410;-75
2023/04/27 04:27:32;;;;;;;7.25;1.80;;;15.10;99.90;;;;;;5093170;28;20516;-76
2023/04/27 04:29:59;;;;;;;5.72;1.92;;;15.20;99.90;;;;;;5098771;28;20877;-75
2023/04/27 04:32:30;;;;;;;5.15;1.88;;;15.20;99.90;;;;;;5091632;27;20979;-75
2023/04/27 04:34:57;;;;;;;6.40;2.00;;;15.20;99.90;;;;;;5102272;27;20837;-75
2023/04/27 04:37:24;;;;;;;3.70;2.00;;;15.20;99.90;;;;;;5102620;27;20970;-76
2023/04/27 04:39:50;;;;;;;6.68;2.22;;;15.30;99.90;;;;;;5079609;28;22305;-76
2023/04/27 04:42:17;;;;;;;5.17;2.00;;;15.30;99.90;;;;;;5115279;27;20400;-75
2023/04/27 04:44:43;;;;;;;4.60;2.10;;;15.30;99.90;;;;;;5095680;28;20440;-75
2023/04/27 04:47:09;;;;;;;4.90;2.00;;;15.30;99.90;;;;;;5103522;27;20406;-75
2023/04/27 04:49:36;;;;;;;4.25;1.95;;;15.40;99.90;;;;;;5099622;28;20404;-75
2023/04/27 04:52:06;;;;;;;5.47;2.00;;;15.40;99.90;;;;;;5096658;27;20472;-75
2023/04/27 04:54:32;;;;;;;6.43;2.10;;;15.50;99.90;;;;;;5102684;27;20404;-75
2023/04/27 04:56:59;;;;;;;3.08;1.73;;;15.50;99.90;;;;;;5056896;28;20395;-75
2023/04/27 04:59:26;;;;;;;5.37;1.90;;;15.60;99.90;;;;;;5082681;28;20424;-76
2023/04/27 05:01:54;;;;;;;5.47;2.00;;;15.60;99.90;;;;;;5102541;27;20416;-75
2023/04/27 05:04:21;;;;;;;4.82;1.95;;;15.60;99.90;;;;;;5100238;27;20460;-76
2023/04/27 05:06:48;;;;;;;4.80;1.77;;;15.60;99.90;;;;;;5082112;28;20404;-75
2023/04/27 05:09:14;;;;;;;8.35;1.90;;;15.60;99.90;;;;;;5077582;28;20420;-75
2023/04/27 05:11:40;;;;;;;5.00;1.97;;;15.60;99.90;;;;;;5096466;27;20425;-75
2023/04/27 05:14:07;;;;;;;4.65;2.10;;;15.70;99.90;;;;;;5104201;27;20406;-75
2023/04/27 05:16:33;;;;;;;4.78;2.28;;;15.70;99.90;;;;;;5089875;28;20696;-76
2023/04/27 05:18:59;;;;;;;5.82;2.40;;;15.80;99.90;;;;;;5097704;28;20966;-76
2023/04/27 05:21:25;;;;;;;5.73;2.20;;;15.80;99.90;;;;;;5098619;27;21093;-75
2023/04/27 05:23:52;;;;;;;5.43;2.35;;;15.80;99.90;;;;;;5102643;27;21084;-75
2023/04/27 05:26:18;;;;;;;5.40;2.47;;;15.90;99.90;;;;;;5095577;28;20407;-75
2023/04/27 05:28:45;;;;;;;5.20;2.50;;;15.90;99.90;;;;;;5095275;27;20421;-76
2023/04/27 05:31:12;;;;;;;4.47;2.38;;;15.90;99.90;;;;;;5098863;27;20404;-75
2023/04/27 05:33:38;;;;;;;5.50;2.38;;;15.90;99.90;;;;;;5080214;28;20420;-75
2023/04/27 05:36:04;;;;;;;4.55;2.30;;;15.80;99.90;;;;;;5095407;28;20412;-75
2023/04/27 05:38:32;;;;;;;4.20;2.30;;;15.80;99.90;;;;;;5084309;28;20441;-76
2023/04/27 05:40:59;;;;;;;5.38;2.60;;;15.90;99.90;;;;;;5077186;28;20436;-75
2023/04/27 05:43:25;;;;;;;4.57;2.60;;;15.90;99.90;;;;;;5098901;28;20408;-76
2023/04/27 05:45:52;;;;;;;2.85;2.30;;;15.90;99.90;;;;;;5102720;28;20414;-76
2023/04/27 05:48:19;;;;;;;6.20;2.40;;;15.90;99.90;;;;;;5090497;28;20450;-76
2023/04/27 05:50:46;;;;;;;3.53;2.38;;;15.90;99.90;;;;;;5109717;28;21138;-75
2023/04/27 05:53:12;;;;;;;5.53;2.53;;;16.00;99.90;;;;;;5082642;28;20475;-76
2023/04/27 05:55:38;;;;;;;6.38;2.53;;;16.00;99.90;;;;;;5102394;28;20906;-76
2023/04/27 05:58:04;;;;;;;7.05;2.30;;;16.00;99.90;;;;;;5080691;28;20405;-76
2023/04/27 06:00:31;;;;;;;4.53;2.40;;;16.00;99.90;;;;;;5076179;28;20447;-76
2023/04/27 06:02:57;;;;;;;5.13;2.42;;;16.00;99.90;;;;;;5078255;28;20556;-75
2023/04/27 06:05:23;;;;;;;6.15;2.60;;;16.10;99.90;;;;;;5089083;28;20412;-76
2023/04/27 06:07:50;;;;;;;4.82;2.47;;;16.00;99.90;;;;;;5100916;28;20502;-75
2023/04/27 06:10:17;;;;;;;4.53;2.35;;;16.00;99.90;;;;;;5096424;28;20452;-75
2023/04/27 06:12:43;;;;;;;4.28;2.20;;;16.00;99.90;;;;;;5095191;28;20416;-75
2023/04/27 06:15:10;;;;;;;5.95;2.50;;;16.00;99.90;;;;;;5090244;28;20408;-76
2023/04/27 06:17:42;;;;;;;6.13;2.50;;;16.00;99.90;;;;;;5097459;28;20490;-75
2023/04/27 06:20:10;;;;;;;3.53;2.35;;;16.00;99.90;;;;;;5100334;27;20473;-76
2023/04/27 06:22:37;;;;;;;3.55;2.35;;;16.00;99.90;;;;;;5082769;28;20746;-76
2023/04/27 06:25:05;;;;;;;4.65;2.50;;;16.00;99.90;;;;;;5100855;27;20415;-75
2023/04/27 06:27:32;;;;;;;5.40;2.30;;;16.10;99.90;;;;;;5107295;27;20446;-76
2023/04/27 06:29:59;;;;;;;5.85;2.40;;;16.10;99.90;;;;;;5091710;27;20483;-76
2023/04/27 06:32:26;;;;;;;7.23;2.40;;;16.10;99.90;;;;;;5117008;27;20419;-76
2023/04/27 06:34:52;;;;;;;3.20;2.20;;;16.10;99.90;;;;;;5100682;27;20442;-75
2023/04/27 06:37:18;;;;;;;5.20;2.33;;;16.10;99.90;;;;;;5102153;28;20416;-75
2023/04/27 06:39:45;;;;;;;4.72;2.40;;;16.10;99.90;;;;;;5098165;27;20409;-76
2023/04/27 06:42:11;;;;;;;4.85;2.35;;;16.10;99.90;;;;;;5086516;28;20436;-76
2023/04/27 06:44:38;;;;;;;5.10;2.67;;;16.10;99.90;;;;;;5084919;28;20408;-76
2023/04/27 06:47:05;;;;;;;4.90;2.47;;;16.20;99.90;;;;;;5092833;27;20400;-76
2023/04/27 06:49:31;;;;;;;4.30;2.40;;;16.20;99.90;;;;;;5100224;27;20414;-76
2023/04/27 06:51:57;;;;;;;4.22;2.63;;;16.20;99.90;;;;;;5095556;28;20947;-76
2023/04/27 06:54:24;;;;;;;3.70;2.50;;;16.20;99.90;;;;;;5094111;27;21105;-76
2023/04/27 06:56:50;;;;;;;7.53;2.57;;;16.30;99.90;;;;;;5082208;28;20565;-76
2023/04/27 06:59:16;;;;;;;4.22;2.50;;;16.40;99.90;;;;;;5078650;28;21082;-76
2023/04/27 07:01:42;;;;;;;4.50;2.40;;;16.40;99.90;;;;;;5085612;28;20403;-76
2023/04/27 07:04:09;;;;;;;4.90;2.80;;;16.40;99.90;;;;;;5101021;27;20442;-76
2023/04/27 07:06:35;;;;;;;4.38;2.40;;;16.50;99.90;;;;;;5099691;27;20410;-76
2023/04/27 07:09:01;;;;;;;5.50;2.45;;;16.50;99.90;;;;;;5098553;28;20415;-76
2023/04/27 07:11:28;;;;;;;5.35;2.30;;;16.50;99.90;;;;;;5101693;27;20897;-76
2023/04/27 07:13:54;;;;;;;4.17;2.30;;;16.60;99.90;;;;;;5075723;27;20421;-76
2023/04/27 07:16:20;;;;;;;3.50;2.30;;;16.70;99.90;;;;;;5103396;27;21037;-76
2023/04/27 07:18:46;;;;;;;4.75;2.30;;;16.70;99.90;;;;;;5091913;27;20423;-75
2023/04/27 07:21:13;;;;;;;5.47;2.30;;;16.70;99.90;;;;;;5067702;27;20410;-76
2023/04/27 07:23:42;;;;;;;5.30;2.50;;;16.70;99.90;;;;;;5084225;27;20477;-76
2023/04/27 07:26:09;;;;;;;5.82;2.20;;;16.70;99.90;;;;;;5093745;27;20423;-76
2023/04/27 07:28:35;;;;;;;6.13;2.40;;;16.70;99.90;;;;;;5100112;27;20467;-76
2023/04/27 07:31:05;;;;;;;5.10;2.20;;;16.60;99.90;;;;;;5096916;27;20408;-76
2023/04/27 07:33:33;;;;;;;4.45;2.20;;;16.60;99.90;;;;;;5100891;27;20822;-76
2023/04/27 07:36:01;;;;;;;4.82;2.45;;;16.60;99.90;;;;;;5111268;27;20746;-76
2023/04/27 07:38:28;;;;;;;4.37;2.30;;;16.70;99.90;;;;;;5089983;28;20402;-76
2023/04/27 07:40:57;;;;;;;7.50;2.40;;;16.80;99.90;;;;;;5101944;27;20824;-76
2023/04/27 07:43:24;;;;;;;6.80;2.53;;;16.90;99.90;;;;;;5088366;27;20513;-76
2023/04/27 07:45:51;;;;;;;5.97;2.35;;;17.10;99.90;;;;;;5103661;27;21193;-76
2023/04/27 07:48:17;;;;;;;6.23;2.60;;;17.30;99.90;;;;;;5100132;27;20491;-76
2023/04/27 07:50:43;;;;;;;5.00;2.30;;;17.60;99.90;;;;;;5088732;28;20734;-76
2023/04/27 07:53:10;;;;;;;5.35;2.30;;;17.60;99.90;;;;;;5100100;27;20411;-76
2023/04/27 07:55:37;;;;;;;4.22;2.08;;;17.60;99.90;;;;;;5084134;28;20446;-76
2023/04/27 07:58:04;;;;;;;5.17;2.30;;;17.40;99.90;;;;;;5098461;27;20432;-76
2023/04/27 08:00:31;;;;;;;5.93;2.17;;;17.40;99.90;;;;;;5096348;27;20476;-76
2023/04/27 08:02:57;;;;;;;3.28;2.17;;;17.40;99.90;;;;;;5106523;27;21273;-76
2023/04/27 08:05:23;;;;;;;6.30;2.37;;;17.20;99.90;;;;;;5103850;27;20787;-76
2023/04/27 08:07:52;;;;;;;4.13;2.03;;;17.00;99.90;;;;;;5084134;28;20410;-76
2023/04/27 08:10:18;;;;;;;4.83;2.20;;;16.80;99.90;;;;;;5112002;27;20895;-76
2023/04/27 08:12:45;;;;;;;4.30;2.40;;;16.40;99.90;;;;;;5093800;28;20412;-76
2023/04/27 08:15:11;;;;;;;5.05;2.30;;;16.30;99.90;;;;;;5099691;28;20408;-76
2023/04/27 08:17:40;;;;;;;8.00;2.75;;;16.10;99.90;;;;;;5099757;27;20414;-76
2023/04/27 08:20:11;;;;;;;6.40;2.33;;;16.20;99.90;;;;;;5108081;27;21055;-76
2023/04/27 08:22:39;;;;;;;5.75;2.50;;;16.00;99.90;;;;;;5108621;27;20406;-76
2023/04/27 08:25:07;;;;;;;4.85;2.53;;;15.90;99.90;;;;;;5078649;28;20499;-76
2023/04/27 08:27:38;;;;;;;5.72;2.47;;;16.30;99.90;;;;;;5081632;28;20946;-76
2023/04/27 08:30:06;;;;;;;10.25;2.80;;;16.50;99.90;;;;;;5098893;27;20448;-76
2023/04/27 08:32:33;;;;;;;5.95;2.40;;;16.50;99.90;;;;;;5081476;28;20398;-76
2023/04/27 08:34:59;;;;;;;4.57;2.30;;;16.40;99.90;;;;;;5095067;27;20959;-75
2023/04/27 08:37:25;;;;;;;6.63;2.58;;;16.30;99.90;;;;;;5082159;28;20432;-76
2023/04/27 08:39:51;;;;;;;7.15;2.60;;;16.10;99.90;;;;;;5084529;28;21150;-76
2023/04/27 08:42:18;;;;;;;7.93;2.30;;;16.00;99.90;;;;;;5097953;27;20400;-76
2023/04/27 08:44:44;;;;;;;5.10;2.10;;;15.90;99.90;;;;;;5081355;28;20411;-76
2023/04/27 08:47:11;;;;;;;4.75;2.30;;;15.70;99.90;;;;;;5109264;27;20493;-76
2023/04/27 08:49:37;;;;;;;4.53;2.17;;;15.70;99.90;;;;;;5106001;27;20411;-76
2023/04/27 08:52:11;;;;;;;6.05;2.30;;;16.00;99.90;;;;;;5099510;28;20408;-76
2023/04/27 08:54:37;;;;;;;5.28;2.42;;;16.00;99.90;;;;;;5097857;27;20400;-76
2023/04/27 08:57:12;;;;;;;7.20;2.60;;;16.10;99.90;;;;;;5100001;27;21081;-76
2023/04/27 08:59:40;;;;;;;6.00;2.35;;;15.80;99.90;;;;;;5083201;28;20409;-76
2023/04/27 09:02:17;;;;;;;7.63;2.47;;;15.70;99.90;;;;;;5079257;27;20472;-76
2023/04/27 09:04:44;;;;;;;6.85;2.10;;;15.50;99.90;;;;;;5102277;27;20487;-76
2023/04/27 09:07:16;;;;;;;8.37;2.33;;;15.40;99.90;;;;;;5109534;27;20508;-76
2023/04/27 09:09:44;;;;;;;6.97;2.30;;;15.40;99.90;;;;;;5082680;28;20412;-76
2023/04/27 09:12:19;;;;;;;5.93;2.40;;;15.50;99.90;;;;;;5104502;27;20417;-76
2023/04/27 09:14:56;;;;;;;8.40;2.50;;;15.50;99.90;;;;;;5077386;27;20413;-76
2023/04/27 09:17:29;;;;;;;7.90;2.47;;;15.60;99.90;;;;;;5067185;28;20454;-76
2023/04/27 09:20:11;;;;;;;7.80;2.63;;;15.70;99.90;;;;;;5076445;28;20445;-76
2023/04/27 09:22:53;;;;;;;8.77;2.70;;;15.80;99.90;;;;;;5093361;28;20493;-76
2023/04/27 09:25:28;;;;;;;6.63;2.42;;;15.90;99.90;;;;;;5096098;27;20413;-76
2023/04/27 09:27:56;;;;;;;7.25;2.42;;;16.00;99.90;;;;;;5095985;27;20406;-76
2023/04/27 09:30:23;;;;;;;7.20;2.53;;;16.00;99.90;;;;;;5103122;27;20418;-76
2023/04/27 09:32:56;;;;;;;5.85;2.60;;;15.80;99.90;;;;;;5080903;28;20396;-76
2023/04/27 09:35:30;;;;;;;5.97;2.80;;;15.80;99.90;;;;;;5099010;27;20990;-76
2023/04/27 09:37:56;;;;;;;7.77;2.40;;;15.80;99.90;;;;;;5078140;28;20414;-76
2023/04/27 09:40:28;;;;;;;6.85;2.42;;;15.80;99.90;;;;;;5081557;28;20403;-76
2023/04/27 09:42:56;;;;;;;8.25;2.55;;;15.70;99.90;;;;;;5079944;28;20793;-76
2023/04/27 09:45:24;;;;;;;8.45;2.20;;;15.70;99.90;;;;;;5108876;28;20411;-76
2023/04/27 09:47:51;;;;;;;8.30;2.35;;;15.70;99.90;;;;;;5081909;28;20485;-76
2023/04/27 09:50:17;;;;;;;6.03;1.98;;;15.50;99.90;;;;;;5082445;28;20400;-76
2023/04/27 09:52:45;;;;;;;6.72;2.10;;;15.50;99.90;;;;;;5084257;28;20439;-75
2023/04/27 09:55:24;;;;;;;6.97;2.10;;;15.50;99.90;;;;;;5067706;28;20411;-76
2023/04/27 09:58:02;;;;;;;6.63;2.10;;;15.50;99.90;;;;;;5087335;27;20417;-76
2023/04/27 10:01:15;;;;;;;5.22;1.90;;;15.60;99.90;;;;;;5081971;28;20436;-76
2023/04/27 10:04:03;;;;;;;4.45;2.00;;;15.60;99.90;;;;;;5102758;27;21081;-76
2023/04/27 10:06:45;;;;;;;7.03;2.03;;;15.50;99.90;;;;;;5104700;27;20446;-76
2023/04/27 10:09:12;;;;;;;5.20;1.90;;;15.30;99.90;;;;;;5103764;27;20408;-76
2023/04/27 10:11:40;;;;;;;5.88;1.75;;;15.20;99.90;;;;;;5102007;27;20408;-76
2023/04/27 10:14:10;;;;;;;6.35;1.95;;;15.00;99.90;;;;;;5086349;27;20398;-75
2023/04/27 10:16:47;;;;;;;7.50;2.10;;;14.90;99.90;;;;;;5067536;28;20457;-75
2023/04/27 10:19:13;;;;;;;6.93;1.98;;;14.90;99.90;;;;;;5092356;27;20404;-76
2023/04/27 10:22:02;;;;;;;8.40;2.20;;;14.80;99.90;;;;;;5090933;27;20481;-75
2023/04/27 10:24:43;;;;;;;8.27;1.92;;;14.80;99.90;;;;;;5101346;27;20495;-76
2023/04/27 10:27:11;;;;;;;7.60;2.13;;;14.90;99.90;;;;;;5098479;27;20505;-75
2023/04/27 10:29:46;;;;;;;5.88;1.85;;;14.90;99.90;;;;;;5098825;28;20417;-75
2023/04/27 10:32:25;;;;;;;7.50;2.23;;;14.80;99.90;;;;;;5109381;27;20414;-76
2023/04/27 10:35:07;;;;;;;6.20;2.05;;;14.80;99.90;;;;;;5085506;27;20501;-75
2023/04/27 10:37:42;;;;;;;6.97;2.00;;;14.80;99.90;;;;;;5112681;27;20413;-75
2023/04/27 10:40:17;;;;;;;5.68;2.08;;;14.70;99.90;;;;;;5081969;27;20419;-75
2023/04/27 10:42:48;;;;;;;6.47;1.90;;;14.70;99.90;;;;;;5065848;28;21120;-75
2023/04/27 10:45:26;;;;;;;7.93;2.13;;;14.70;99.90;;;;;;5102828;27;20480;-75
2023/04/27 10:47:59;;;;;;;6.73;2.10;;;14.80;99.90;;;;;;5112502;27;20425;-75
2023/04/27 10:50:26;;;;;;;7.38;1.90;;;14.90;99.90;;;;;;5085084;28;20441;-75
2023/04/27 10:52:52;;;;;;;8.02;2.20;;;15.00;99.90;;;;;;5107810;27;20399;-75
2023/04/27 10:55:21;;;;;;;6.67;2.00;;;15.20;99.90;;;;;;5102804;27;20434;-75
2023/04/27 10:57:53;;;;;;;10.30;2.22;;;15.40;99.90;;;;;;5099727;27;20416;-75
2023/04/27 11:00:28;;;;;;;5.37;1.93;;;15.50;99.90;;;;;;5096840;28;20948;-75
2023/04/27 11:03:09;;;;;;;8.63;2.25;;;15.50;99.90;;;;;;5079273;28;20417;-75
2023/04/27 11:05:35;;;;;;;6.85;2.30;;;15.80;99.90;;;;;;5085169;28;20808;-75
2023/04/27 11:08:11;;;;;;;7.13;1.97;;;16.00;99.90;;;;;;5077691;28;20982;-75
2023/04/27 11:10:48;;;;;;;8.48;2.08;;;16.10;99.90;;;;;;5100067;28;20488;-75
2023/04/27 11:13:21;;;;;;;6.57;1.90;;;16.10;99.90;;;;;;5087048;28;20457;-75
2023/04/27 11:15:54;;;;;;;7.65;2.17;;;16.40;99.90;;;;;;5103604;28;20408;-75
2023/04/27 11:18:23;;;;;;;4.28;1.75;;;16.40;99.90;;;;;;5090505;28;20545;-76
2023/04/27 11:20:53;;;;;;;6.47;1.90;;;16.50;99.90;;;;;;5096430;28;20429;-76
2023/04/27 11:23:37;;;;;;;5.68;1.92;;;16.70;99.90;;;;;;5086398;28;20504;-75
2023/04/27 11:26:21;;;;;;;4.87;1.60;;;16.60;99.90;;;;;;5096289;28;20414;-76
2023/04/27 11:28:58;;;;;;;5.07;1.93;;;16.70;99.90;;;;;;5107267;28;20803;-76
2023/04/27 11:31:27;;;;;;;6.43;1.75;;;16.90;99.90;;;;;;5097841;28;21300;-76
2023/04/27 11:33:54;;;;;;;5.88;1.70;;;16.90;99.90;;;;;;5082806;28;20490;-76
2023/04/27 11:36:23;;;;;;;6.57;1.60;;;16.90;99.90;;;;;;5081142;28;20432;-76
2023/04/27 11:38:49;;;;;;;5.93;1.80;;;16.80;99.90;;;;;;5100583;28;20494;-76
2023/04/27 11:41:16;;;;;;;6.47;1.97;;;16.60;99.90;;;;;;5102168;28;20412;-76
2023/04/27 11:43:48;;;;;;;6.90;2.00;;;16.40;99.90;;;;;;5078617;28;20875;-75
2023/04/27 11:46:14;;;;;;;6.70;2.08;;;16.20;99.90;;;;;;5085576;28;20910;-76
2023/04/27 11:48:41;;;;;;;6.10;2.00;;;16.20;99.90;;;;;;5084066;28;20416;-76
2023/04/27 11:51:11;;;;;;;5.15;1.80;;;16.00;99.90;;;;;;5079519;28;20408;-76
2023/04/27 11:53:41;;;;;;;8.40;2.50;;;16.10;99.90;;;;;;5088210;28;20405;-76
2023/04/27 11:56:09;;;;;;;7.80;1.90;;;16.30;99.90;;;;;;5083130;28;20405;-76
2023/04/27 11:58:38;;;;;;;5.80;2.20;;;16.50;99.90;;;;;;5031880;28;1507710;-76
2023/04/27 12:01:06;;;;;;;9.33;2.10;;;16.40;99.90;;;;;;5094424;28;20410;-76
2023/04/27 12:03:32;;;;;;;8.02;2.20;;;16.30;99.90;;;;;;5096090;28;20427;-76
2023/04/27 12:05:59;;;;;;;7.13;2.00;;;16.30;99.90;;;;;;5097093;28;20915;-76
2023/04/27 12:08:25;;;;;;;5.57;2.00;;;16.40;99.90;;;;;;5085241;28;20432;-76
2023/04/27 12:10:51;;;;;;;5.50;1.90;;;16.80;99.90;;;;;;5080948;28;20412;-76
2023/04/27 12:13:17;;;;;;;10.88;2.42;;;16.70;99.90;;;;;;5086539;28;20407;-76
2023/04/27 12:15:43;;;;;;;10.03;2.57;;;16.70;99.90;;;;;;5080228;28;20450;-76
2023/04/27 12:18:10;;;;;;;6.47;2.13;;;16.70;99.90;;;;;;5105874;28;20783;-76
2023/04/27 12:20:37;;;;;;;6.50;1.80;;;16.60;99.90;;;;;;5070240;28;20478;-76
2023/04/27 12:23:03;;;;;;;4.60;1.77;;;16.60;99.90;;;;;;5087210;28;20818;-76
2023/04/27 12:25:29;;;;;;;6.18;1.80;;;16.50;99.90;;;;;;5095537;27;21173;-74
2023/04/27 12:27:56;;;;;;;9.77;1.93;;;16.60;99.90;;;;;;5067476;27;20467;-74
2023/04/27 12:30:23;;;;;;;7.43;2.10;;;17.10;99.90;;;;;;5082539;27;20410;-74
2023/04/27 12:32:50;;;;;;;7.30;1.77;;;17.50;99.90;;;;;;5094957;27;20908;-74
2023/04/27 12:35:16;;;;;;;6.57;1.90;;;17.70;99.90;;;;;;5102467;27;20400;-74
2023/04/27 12:37:42;;;;;;;8.82;1.92;;;17.70;99.90;;;;;;5102394;27;20927;-74
2023/04/27 12:40:09;;;;;;;7.03;1.80;;;17.80;99.90;;;;;;5095455;27;20439;-74
2023/04/27 12:42:35;;;;;;;5.60;1.90;;;17.80;99.90;;;;;;5081113;27;20907;-74
2023/04/27 12:45:03;;;;;;;9.52;2.05;;;17.70;99.90;;;;;;5063235;27;20987;-74
2023/04/27 12:47:30;;;;;;;9.27;2.10;;;17.70;99.90;;;;;;5109089;27;21003;-74
2023/04/27 12:49:57;;;;;;;5.78;2.20;;;17.80;99.90;;;;;;5082532;28;20455;-74